sensor_id;sensor_type;location;lat;lon;timestamp;P1;durP1;ratioP1;P2;durP2;ratioP2
26820;SDS011;37186;51.394;5.454;2023-05-16T00:02:49;7.20;;;7.00;;
26820;SDS011;37186;51.394;5.454;2023-05-16T00:05:50;7.67;;;7.47;;
26820;SDS011;37186;51.394;5.454;2023-05-16T00:08:51;7.17;;;6.97;;
26820;SDS011;37186;51.394;5.454;2023-05-16T00:11:51;7.07;;;6.87;;
26820;SDS011;37186;51.394;5.454;2023-05-16T00:14:52;7.10;;;6.90;;
26820;SDS011;37186;51.394;5.454;2023-05-16T00:17:53;7.23;;;7.03;;
26820;SDS011;37186;51.394;5.454;2023-05-16T00:20:57;7.13;;;6.93;;
26820;SDS011;37186;51.394;5.454;2023-05-16T00:23:58;6.97;;;6.77;;
26820;SDS011;37186;51.394;5.454;2023-05-16T00:26:58;6.47;;;6.27;;
26820;SDS011;37186;51.394;5.454;2023-05-16T00:29:59;6.83;;;6.63;;
26820;SDS011;37186;51.394;5.454;2023-05-16T00:33:00;6.83;;;6.63;;
26820;SDS011;37186;51.394;5.454;2023-05-16T00:36:01;6.87;;;6.67;;
26820;SDS011;37186;51.394;5.454;2023-05-16T00:39:02;5.97;;;5.80;;
26820;SDS011;37186;51.394;5.454;2023-05-16T00:42:03;5.47;;;5.37;;
26820;SDS011;37186;51.394;5.454;2023-05-16T00:45:04;5.37;;;5.27;;
26820;SDS011;37186;51.394;5.454;2023-05-16T00:48:05;5.30;;;5.20;;
26820;SDS011;37186;51.394;5.454;2023-05-16T00:51:08;5.17;;;5.07;;
26820;SDS011;37186;51.394;5.454;2023-05-16T00:54:08;4.83;;;4.73;;
26820;SDS011;37186;51.394;5.454;2023-05-16T00:57:10;4.83;;;4.73;;
26820;SDS011;37186;51.394;5.454;2023-05-16T01:00:11;4.70;;;4.60;;
26820;SDS011;37186;51.394;5.454;2023-05-16T01:03:16;4.40;;;4.30;;
26820;SDS011;37186;51.394;5.454;2023-05-16T01:06:17;4.37;;;4.27;;
26820;SDS011;37186;51.394;5.454;2023-05-16T01:09:18;4.27;;;4.17;;
26820;SDS011;37186;51.394;5.454;2023-05-16T01:15:49;4.43;;;4.33;;
26820;SDS011;37186;51.394;5.454;2023-05-16T01:22:02;4.67;;;4.57;;
26820;SDS011;37186;51.394;5.454;2023-05-16T01:28:37;4.70;;;4.60;;
26820;SDS011;37186;51.394;5.454;2023-05-16T01:31:38;4.70;;;4.60;;
26820;SDS011;37186;51.394;5.454;2023-05-16T01:34:39;4.80;;;4.70;;
26820;SDS011;37186;51.394;5.454;2023-05-16T01:37:41;4.53;;;4.43;;
26820;SDS011;37186;51.394;5.454;2023-05-16T01:40:55;4.77;;;4.67;;
26820;SDS011;37186;51.394;5.454;2023-05-16T01:45:03;4.37;;;4.27;;
26820;SDS011;37186;51.394;5.454;2023-05-16T01:47:44;4.50;;;4.40;;
26820;SDS011;37186;51.394;5.454;2023-05-16T01:50:53;4.20;;;4.10;;
26820;SDS011;37186;51.394;5.454;2023-05-16T01:53:57;4.50;;;4.40;;
26820;SDS011;37186;51.394;5.454;2023-05-16T01:57:03;4.40;;;4.30;;
26820;SDS011;37186;51.394;5.454;2023-05-16T02:00:05;4.50;;;4.40;;
26820;SDS011;37186;51.394;5.454;2023-05-16T02:03:06;4.50;;;4.40;;
26820;SDS011;37186;51.394;5.454;2023-05-16T02:06:07;4.37;;;4.27;;
26820;SDS011;37186;51.394;5.454;2023-05-16T02:09:08;4.20;;;4.10;;
26820;SDS011;37186;51.394;5.454;2023-05-16T02:12:08;4.03;;;3.93;;
26820;SDS011;37186;51.394;5.454;2023-05-16T02:15:09;4.33;;;4.23;;
26820;SDS011;37186;51.394;5.454;2023-05-16T02:18:10;4.40;;;4.30;;
26820;SDS011;37186;51.394;5.454;2023-05-16T02:21:11;4.33;;;4.23;;
26820;SDS011;37186;51.394;5.454;2023-05-16T02:24:11;4.37;;;4.27;;
26820;SDS011;37186;51.394;5.454;2023-05-16T02:27:12;4.40;;;4.30;;
26820;SDS011;37186;51.394;5.454;2023-05-16T02:30:12;4.27;;;4.17;;
26820;SDS011;37186;51.394;5.454;2023-05-16T02:33:13;4.37;;;4.27;;
26820;SDS011;37186;51.394;5.454;2023-05-16T02:36:13;4.17;;;4.07;;
26820;SDS011;37186;51.394;5.454;2023-05-16T02:39:14;4.17;;;4.07;;
26820;SDS011;37186;51.394;5.454;2023-05-16T02:42:14;4.17;;;4.07;;
26820;SDS011;37186;51.394;5.454;2023-05-16T02:45:15;3.93;;;3.83;;
26820;SDS011;37186;51.394;5.454;2023-05-16T02:48:16;4.00;;;3.90;;
26820;SDS011;37186;51.394;5.454;2023-05-16T02:51:16;4.10;;;4.00;;
26820;SDS011;37186;51.394;5.454;2023-05-16T02:54:19;4.10;;;4.00;;
26820;SDS011;37186;51.394;5.454;2023-05-16T02:57:20;4.20;;;4.10;;
26820;SDS011;37186;51.394;5.454;2023-05-16T03:00:21;4.40;;;4.30;;
26820;SDS011;37186;51.394;5.454;2023-05-16T03:03:21;4.40;;;4.30;;
26820;SDS011;37186;51.394;5.454;2023-05-16T03:06:22;4.60;;;4.50;;
26820;SDS011;37186;51.394;5.454;2023-05-16T03:09:23;4.60;;;4.50;;
26820;SDS011;37186;51.394;5.454;2023-05-16T03:12:23;4.40;;;4.30;;
26820;SDS011;37186;51.394;5.454;2023-05-16T03:15:24;4.63;;;4.53;;
26820;SDS011;37186;51.394;5.454;2023-05-16T03:18:24;4.70;;;4.60;;
26820;SDS011;37186;51.394;5.454;2023-05-16T03:21:25;4.40;;;4.30;;
26820;SDS011;37186;51.394;5.454;2023-05-16T03:24:26;4.57;;;4.47;;
26820;SDS011;37186;51.394;5.454;2023-05-16T03:27:26;4.67;;;4.57;;
26820;SDS011;37186;51.394;5.454;2023-05-16T03:30:27;4.43;;;4.33;;
26820;SDS011;37186;51.394;5.454;2023-05-16T03:33:27;4.90;;;4.80;;
26820;SDS011;37186;51.394;5.454;2023-05-16T03:36:28;4.70;;;4.60;;
26820;SDS011;37186;51.394;5.454;2023-05-16T03:39:29;4.70;;;4.60;;
26820;SDS011;37186;51.394;5.454;2023-05-16T03:42:30;5.00;;;4.90;;
26820;SDS011;37186;51.394;5.454;2023-05-16T03:45:31;4.80;;;4.70;;
26820;SDS011;37186;51.394;5.454;2023-05-16T03:48:31;4.77;;;4.67;;
26820;SDS011;37186;51.394;5.454;2023-05-16T03:51:32;4.80;;;4.70;;
26820;SDS011;37186;51.394;5.454;2023-05-16T03:54:33;5.27;;;5.17;;
26820;SDS011;37186;51.394;5.454;2023-05-16T03:57:33;4.90;;;4.80;;
26820;SDS011;37186;51.394;5.454;2023-05-16T04:00:35;4.83;;;4.73;;
26820;SDS011;37186;51.394;5.454;2023-05-16T04:03:35;4.87;;;4.77;;
26820;SDS011;37186;51.394;5.454;2023-05-16T04:06:37;4.83;;;4.73;;
26820;SDS011;37186;51.394;5.454;2023-05-16T04:09:37;4.70;;;4.60;;
26820;SDS011;37186;51.394;5.454;2023-05-16T04:12:38;4.93;;;4.83;;
26820;SDS011;37186;51.394;5.454;2023-05-16T04:15:39;4.80;;;4.70;;
26820;SDS011;37186;51.394;5.454;2023-05-16T04:18:39;5.03;;;4.93;;
26820;SDS011;37186;51.394;5.454;2023-05-16T04:21:40;5.10;;;5.00;;
26820;SDS011;37186;51.394;5.454;2023-05-16T04:24:41;5.07;;;4.97;;
26820;SDS011;37186;51.394;5.454;2023-05-16T04:27:41;4.90;;;4.80;;
26820;SDS011;37186;51.394;5.454;2023-05-16T04:30:42;5.03;;;4.93;;
26820;SDS011;37186;51.394;5.454;2023-05-16T04:33:42;5.10;;;5.00;;
26820;SDS011;37186;51.394;5.454;2023-05-16T04:36:43;5.00;;;4.90;;
26820;SDS011;37186;51.394;5.454;2023-05-16T04:39:44;5.20;;;5.10;;
26820;SDS011;37186;51.394;5.454;2023-05-16T04:42:44;5.30;;;5.20;;
26820;SDS011;37186;51.394;5.454;2023-05-16T04:45:45;5.17;;;5.07;;
26820;SDS011;37186;51.394;5.454;2023-05-16T04:48:46;5.00;;;4.90;;
26820;SDS011;37186;51.394;5.454;2023-05-16T04:51:47;5.00;;;4.90;;
26820;SDS011;37186;51.394;5.454;2023-05-16T04:54:50;4.70;;;4.60;;
26820;SDS011;37186;51.394;5.454;2023-05-16T04:57:51;5.10;;;5.00;;
26820;SDS011;37186;51.394;5.454;2023-05-16T05:00:52;4.93;;;4.83;;
26820;SDS011;37186;51.394;5.454;2023-05-16T05:03:54;5.10;;;5.00;;
26820;SDS011;37186;51.394;5.454;2023-05-16T05:06:55;5.03;;;4.93;;
26820;SDS011;37186;51.394;5.454;2023-05-16T05:09:55;5.00;;;4.90;;
26820;SDS011;37186;51.394;5.454;2023-05-16T05:12:56;5.10;;;5.00;;
26820;SDS011;37186;51.394;5.454;2023-05-16T05:15:57;5.10;;;5.00;;
26820;SDS011;37186;51.394;5.454;2023-05-16T05:18:57;4.70;;;4.60;;
26820;SDS011;37186;51.394;5.454;2023-05-16T05:21:58;4.97;;;4.87;;
26820;SDS011;37186;51.394;5.454;2023-05-16T05:24:59;5.10;;;5.00;;
26820;SDS011;37186;51.394;5.454;2023-05-16T05:27:59;5.00;;;4.90;;
26820;SDS011;37186;51.394;5.454;2023-05-16T05:31:00;5.30;;;5.20;;
26820;SDS011;37186;51.394;5.454;2023-05-16T05:34:01;5.23;;;5.13;;
26820;SDS011;37186;51.394;5.454;2023-05-16T05:37:02;5.17;;;5.07;;
26820;SDS011;37186;51.394;5.454;2023-05-16T05:40:03;5.17;;;5.07;;
26820;SDS011;37186;51.394;5.454;2023-05-16T05:43:04;5.03;;;4.93;;
26820;SDS011;37186;51.394;5.454;2023-05-16T05:46:04;5.17;;;5.07;;
26820;SDS011;37186;51.394;5.454;2023-05-16T05:49:06;4.80;;;4.70;;
26820;SDS011;37186;51.394;5.454;2023-05-16T05:52:06;5.20;;;5.10;;
26820;SDS011;37186;51.394;5.454;2023-05-16T05:55:07;3.87;;;3.77;;
26820;SDS011;37186;51.394;5.454;2023-05-16T05:58:08;4.43;;;4.33;;
26820;SDS011;37186;51.394;5.454;2023-05-16T06:01:11;5.00;;;4.90;;
26820;SDS011;37186;51.394;5.454;2023-05-16T06:04:11;5.13;;;5.03;;
26820;SDS011;37186;51.394;5.454;2023-05-16T06:07:12;4.90;;;4.80;;
26820;SDS011;37186;51.394;5.454;2023-05-16T06:10:14;4.90;;;4.80;;
26820;SDS011;37186;51.394;5.454;2023-05-16T06:13:15;5.10;;;5.00;;
26820;SDS011;37186;51.394;5.454;2023-05-16T06:16:16;5.43;;;5.33;;
26820;SDS011;37186;51.394;5.454;2023-05-16T06:19:16;5.60;;;5.50;;
26820;SDS011;37186;51.394;5.454;2023-05-16T06:22:17;5.20;;;5.10;;
26820;SDS011;37186;51.394;5.454;2023-05-16T06:25:17;5.60;;;5.50;;
26820;SDS011;37186;51.394;5.454;2023-05-16T06:28:18;5.07;;;4.97;;
26820;SDS011;37186;51.394;5.454;2023-05-16T06:31:19;5.20;;;5.10;;
26820;SDS011;37186;51.394;5.454;2023-05-16T06:34:19;5.00;;;4.90;;
26820;SDS011;37186;51.394;5.454;2023-05-16T06:37:26;4.70;;;4.60;;
26820;SDS011;37186;51.394;5.454;2023-05-16T06:40:27;4.80;;;4.70;;
26820;SDS011;37186;51.394;5.454;2023-05-16T06:43:27;4.80;;;4.70;;
26820;SDS011;37186;51.394;5.454;2023-05-16T06:46:28;4.23;;;4.13;;
26820;SDS011;37186;51.394;5.454;2023-05-16T06:49:28;4.27;;;4.17;;
26820;SDS011;37186;51.394;5.454;2023-05-16T06:52:29;4.37;;;4.27;;
26820;SDS011;37186;51.394;5.454;2023-05-16T06:55:29;4.07;;;3.97;;
26820;SDS011;37186;51.394;5.454;2023-05-16T06:58:30;4.23;;;4.13;;
26820;SDS011;37186;51.394;5.454;2023-05-16T07:01:31;3.87;;;3.77;;
26820;SDS011;37186;51.394;5.454;2023-05-16T07:04:31;3.83;;;3.73;;
26820;SDS011;37186;51.394;5.454;2023-05-16T07:07:33;3.97;;;3.87;;
26820;SDS011;37186;51.394;5.454;2023-05-16T07:10:34;3.83;;;3.73;;
26820;SDS011;37186;51.394;5.454;2023-05-16T07:13:35;4.07;;;3.97;;
26820;SDS011;37186;51.394;5.454;2023-05-16T07:16:35;4.00;;;3.90;;
26820;SDS011;37186;51.394;5.454;2023-05-16T07:19:36;4.23;;;4.13;;
26820;SDS011;37186;51.394;5.454;2023-05-16T07:22:36;4.37;;;4.27;;
26820;SDS011;37186;51.394;5.454;2023-05-16T07:25:37;4.30;;;4.20;;
26820;SDS011;37186;51.394;5.454;2023-05-16T07:28:37;4.23;;;4.13;;
26820;SDS011;37186;51.394;5.454;2023-05-16T07:31:38;4.37;;;4.27;;
26820;SDS011;37186;51.394;5.454;2023-05-16T07:34:38;4.27;;;4.17;;
26820;SDS011;37186;51.394;5.454;2023-05-16T07:37:39;4.27;;;4.17;;
26820;SDS011;37186;51.394;5.454;2023-05-16T07:40:42;4.23;;;4.13;;
26820;SDS011;37186;51.394;5.454;2023-05-16T07:43:42;4.33;;;4.23;;
26820;SDS011;37186;51.394;5.454;2023-05-16T07:46:43;4.03;;;3.93;;
26820;SDS011;37186;51.394;5.454;2023-05-16T07:49:43;4.30;;;4.20;;
26820;SDS011;37186;51.394;5.454;2023-05-16T07:52:44;4.23;;;4.13;;
26820;SDS011;37186;51.394;5.454;2023-05-16T07:55:45;4.40;;;4.30;;
26820;SDS011;37186;51.394;5.454;2023-05-16T07:58:46;4.50;;;4.40;;
26820;SDS011;37186;51.394;5.454;2023-05-16T08:01:47;4.60;;;4.50;;
26820;SDS011;37186;51.394;5.454;2023-05-16T08:04:48;4.10;;;4.00;;
26820;SDS011;37186;51.394;5.454;2023-05-16T08:07:49;4.93;;;4.83;;
26820;SDS011;37186;51.394;5.454;2023-05-16T08:10:49;4.67;;;4.57;;
26820;SDS011;37186;51.394;5.454;2023-05-16T08:13:50;4.67;;;4.57;;
26820;SDS011;37186;51.394;5.454;2023-05-16T08:16:50;4.50;;;4.40;;
26820;SDS011;37186;51.394;5.454;2023-05-16T08:19:51;4.20;;;4.10;;
26820;SDS011;37186;51.394;5.454;2023-05-16T08:22:51;4.27;;;4.17;;
26820;SDS011;37186;51.394;5.454;2023-05-16T08:25:52;3.90;;;3.80;;
26820;SDS011;37186;51.394;5.454;2023-05-16T08:28:53;3.90;;;3.80;;
26820;SDS011;37186;51.394;5.454;2023-05-16T08:31:54;3.60;;;3.50;;
26820;SDS011;37186;51.394;5.454;2023-05-16T08:34:54;3.50;;;3.40;;
26820;SDS011;37186;51.394;5.454;2023-05-16T08:37:55;3.30;;;3.20;;
26820;SDS011;37186;51.394;5.454;2023-05-16T08:40:55;3.60;;;3.50;;
26820;SDS011;37186;51.394;5.454;2023-05-16T08:43:56;3.80;;;3.70;;
26820;SDS011;37186;51.394;5.454;2023-05-16T08:46:57;3.60;;;3.50;;
26820;SDS011;37186;51.394;5.454;2023-05-16T08:50:10;4.10;;;4.00;;
26820;SDS011;37186;51.394;5.454;2023-05-16T08:53:12;3.70;;;3.60;;
26820;SDS011;37186;51.394;5.454;2023-05-16T08:56:16;3.80;;;3.70;;
26820;SDS011;37186;51.394;5.454;2023-05-16T08:59:18;3.90;;;3.80;;
26820;SDS011;37186;51.394;5.454;2023-05-16T09:02:20;4.03;;;3.93;;
26820;SDS011;37186;51.394;5.454;2023-05-16T09:05:21;3.93;;;3.83;;
26820;SDS011;37186;51.394;5.454;2023-05-16T09:08:23;3.90;;;3.80;;
26820;SDS011;37186;51.394;5.454;2023-05-16T09:11:23;3.63;;;3.53;;
26820;SDS011;37186;51.394;5.454;2023-05-16T09:14:24;3.70;;;3.60;;
26820;SDS011;37186;51.394;5.454;2023-05-16T09:17:25;3.73;;;3.63;;
26820;SDS011;37186;51.394;5.454;2023-05-16T09:20:26;4.00;;;3.90;;
26820;SDS011;37186;51.394;5.454;2023-05-16T09:23:26;3.73;;;3.63;;
26820;SDS011;37186;51.394;5.454;2023-05-16T09:26:27;3.63;;;3.53;;
26820;SDS011;37186;51.394;5.454;2023-05-16T09:29:27;3.83;;;3.73;;
26820;SDS011;37186;51.394;5.454;2023-05-16T09:32:28;3.80;;;3.70;;
26820;SDS011;37186;51.394;5.454;2023-05-16T09:35:30;3.63;;;3.53;;
26820;SDS011;37186;51.394;5.454;2023-05-16T09:38:31;3.87;;;3.77;;
26820;SDS011;37186;51.394;5.454;2023-05-16T09:41:32;3.87;;;3.77;;
26820;SDS011;37186;51.394;5.454;2023-05-16T09:44:33;3.87;;;3.77;;
26820;SDS011;37186;51.394;5.454;2023-05-16T09:47:34;3.90;;;3.80;;
26820;SDS011;37186;51.394;5.454;2023-05-16T09:50:35;3.95;;;3.85;;
26820;SDS011;37186;51.394;5.454;2023-05-16T09:53:36;4.00;;;3.90;;
26820;SDS011;37186;51.394;5.454;2023-05-16T09:56:47;4.17;;;4.07;;
26820;SDS011;37186;51.394;5.454;2023-05-16T09:59:49;4.40;;;4.30;;
26820;SDS011;37186;51.394;5.454;2023-05-16T10:02:50;5.00;;;4.90;;
26820;SDS011;37186;51.394;5.454;2023-05-16T10:05:53;5.40;;;5.30;;
26820;SDS011;37186;51.394;5.454;2023-05-16T10:08:54;5.18;;;5.07;;
26820;SDS011;37186;51.394;5.454;2023-05-16T10:11:55;5.00;;;4.90;;
26820;SDS011;37186;51.394;5.454;2023-05-16T10:14:56;4.68;;;4.57;;
26820;SDS011;37186;51.394;5.454;2023-05-16T10:17:56;4.30;;;4.20;;
26820;SDS011;37186;51.394;5.454;2023-05-16T10:21:02;3.83;;;3.72;;
26820;SDS011;37186;51.394;5.454;2023-05-16T10:24:05;4.07;;;3.97;;
26820;SDS011;37186;51.394;5.454;2023-05-16T10:27:08;4.03;;;3.93;;
26820;SDS011;37186;51.394;5.454;2023-05-16T10:30:09;3.97;;;3.87;;
26820;SDS011;37186;51.394;5.454;2023-05-16T10:33:15;3.90;;;3.80;;
26820;SDS011;37186;51.394;5.454;2023-05-16T10:36:17;3.97;;;3.88;;
26820;SDS011;37186;51.394;5.454;2023-05-16T10:39:18;4.10;;;4.00;;
26820;SDS011;37186;51.394;5.454;2023-05-16T10:42:19;4.20;;;4.10;;
26820;SDS011;37186;51.394;5.454;2023-05-16T10:45:20;4.15;;;4.05;;
26820;SDS011;37186;51.394;5.454;2023-05-16T10:48:27;4.63;;;4.53;;
26820;SDS011;37186;51.394;5.454;2023-05-16T10:51:34;4.30;;;4.20;;
26820;SDS011;37186;51.394;5.454;2023-05-16T10:54:36;5.13;;;5.03;;
26820;SDS011;37186;51.394;5.454;2023-05-16T10:57:41;4.80;;;4.70;;
26820;SDS011;37186;51.394;5.454;2023-05-16T11:00:43;4.25;;;4.15;;
26820;SDS011;37186;51.394;5.454;2023-05-16T11:07:01;4.18;;;4.07;;
26820;SDS011;37186;51.394;5.454;2023-05-16T11:10:03;3.53;;;3.42;;
26820;SDS011;37186;51.394;5.454;2023-05-16T11:13:08;3.75;;;3.65;;
26820;SDS011;37186;51.394;5.454;2023-05-16T11:16:27;3.92;;;3.83;;
26820;SDS011;37186;51.394;5.454;2023-05-16T11:22:47;3.83;;;3.72;;
26820;SDS011;37186;51.394;5.454;2023-05-16T11:25:50;3.75;;;3.65;;
26820;SDS011;37186;51.394;5.454;2023-05-16T11:28:52;3.60;;;3.50;;
26820;SDS011;37186;51.394;5.454;2023-05-16T11:31:54;3.70;;;3.60;;
26820;SDS011;37186;51.394;5.454;2023-05-16T11:34:54;3.50;;;3.40;;
26820;SDS011;37186;51.394;5.454;2023-05-16T11:37:57;3.53;;;3.42;;
26820;SDS011;37186;51.394;5.454;2023-05-16T11:41:04;3.60;;;3.50;;
26820;SDS011;37186;51.394;5.454;2023-05-16T11:44:05;3.50;;;3.40;;
26820;SDS011;37186;51.394;5.454;2023-05-16T11:47:06;3.60;;;3.50;;
26820;SDS011;37186;51.394;5.454;2023-05-16T11:50:11;3.70;;;3.60;;
26820;SDS011;37186;51.394;5.454;2023-05-16T11:53:12;3.67;;;3.58;;
26820;SDS011;37186;51.394;5.454;2023-05-16T11:56:13;3.90;;;3.80;;
26820;SDS011;37186;51.394;5.454;2023-05-16T11:59:14;3.70;;;3.60;;
26820;SDS011;37186;51.394;5.454;2023-05-16T12:02:14;3.85;;;3.75;;
26820;SDS011;37186;51.394;5.454;2023-05-16T12:05:15;3.60;;;3.50;;
26820;SDS011;37186;51.394;5.454;2023-05-16T12:08:18;3.80;;;3.70;;
26820;SDS011;37186;51.394;5.454;2023-05-16T12:11:21;3.45;;;3.35;;
26820;SDS011;37186;51.394;5.454;2023-05-16T12:14:22;3.70;;;3.60;;
26820;SDS011;37186;51.394;5.454;2023-05-16T12:17:24;3.78;;;3.67;;
26820;SDS011;37186;51.394;5.454;2023-05-16T12:20:25;3.90;;;3.80;;
26820;SDS011;37186;51.394;5.454;2023-05-16T12:23:26;3.75;;;3.65;;
26820;SDS011;37186;51.394;5.454;2023-05-16T12:26:29;3.58;;;3.47;;
26820;SDS011;37186;51.394;5.454;2023-05-16T12:29:31;4.03;;;3.92;;
26820;SDS011;37186;51.394;5.454;2023-05-16T12:32:35;3.83;;;3.72;;
26820;SDS011;37186;51.394;5.454;2023-05-16T12:35:37;3.95;;;3.85;;
26820;SDS011;37186;51.394;5.454;2023-05-16T12:38:44;4.20;;;4.10;;
26820;SDS011;37186;51.394;5.454;2023-05-16T12:41:45;3.88;;;3.78;;
26820;SDS011;37186;51.394;5.454;2023-05-16T12:44:46;4.13;;;4.03;;
26820;SDS011;37186;51.394;5.454;2023-05-16T12:47:46;4.10;;;4.00;;
26820;SDS011;37186;51.394;5.454;2023-05-16T12:50:47;4.60;;;4.50;;
26820;SDS011;37186;51.394;5.454;2023-05-16T12:53:48;4.13;;;4.03;;
26820;SDS011;37186;51.394;5.454;2023-05-16T12:56:49;3.90;;;3.80;;
26820;SDS011;37186;51.394;5.454;2023-05-16T12:59:50;3.88;;;3.78;;
26820;SDS011;37186;51.394;5.454;2023-05-16T13:02:50;4.13;;;4.03;;
26820;SDS011;37186;51.394;5.454;2023-05-16T13:05:51;3.95;;;3.85;;
26820;SDS011;37186;51.394;5.454;2023-05-16T13:08:51;3.80;;;3.70;;
26820;SDS011;37186;51.394;5.454;2023-05-16T13:11:52;3.97;;;3.88;;
26820;SDS011;37186;51.394;5.454;2023-05-16T13:14:53;3.92;;;3.83;;
26820;SDS011;37186;51.394;5.454;2023-05-16T13:17:53;3.80;;;3.70;;
26820;SDS011;37186;51.394;5.454;2023-05-16T13:20:54;3.95;;;3.85;;
26820;SDS011;37186;51.394;5.454;2023-05-16T13:23:55;4.18;;;4.07;;
26820;SDS011;37186;51.394;5.454;2023-05-16T13:26:55;4.05;;;3.95;;
26820;SDS011;37186;51.394;5.454;2023-05-16T13:29:57;3.90;;;3.80;;
26820;SDS011;37186;51.394;5.454;2023-05-16T13:32:58;4.13;;;4.03;;
26820;SDS011;37186;51.394;5.454;2023-05-16T13:35:58;4.05;;;3.95;;
26820;SDS011;37186;51.394;5.454;2023-05-16T13:38:59;4.63;;;4.53;;
26820;SDS011;37186;51.394;5.454;2023-05-16T13:41:59;4.28;;;4.18;;
26820;SDS011;37186;51.394;5.454;2023-05-16T13:45:02;4.25;;;4.15;;
26820;SDS011;37186;51.394;5.454;2023-05-16T13:48:06;4.32;;;4.22;;
26820;SDS011;37186;51.394;5.454;2023-05-16T13:51:07;4.22;;;4.13;;
26820;SDS011;37186;51.394;5.454;2023-05-16T13:54:09;4.28;;;4.18;;
26820;SDS011;37186;51.394;5.454;2023-05-16T13:57:10;4.25;;;4.15;;
26820;SDS011;37186;51.394;5.454;2023-05-16T14:00:11;4.20;;;4.10;;
26820;SDS011;37186;51.394;5.454;2023-05-16T14:03:12;4.25;;;4.15;;
26820;SDS011;37186;51.394;5.454;2023-05-16T14:06:12;4.40;;;4.30;;
26820;SDS011;37186;51.394;5.454;2023-05-16T14:09:13;4.28;;;4.18;;
26820;SDS011;37186;51.394;5.454;2023-05-16T14:12:14;3.95;;;3.85;;
26820;SDS011;37186;51.394;5.454;2023-05-16T14:15:14;3.95;;;3.85;;
26820;SDS011;37186;51.394;5.454;2023-05-16T14:18:15;4.18;;;4.07;;
26820;SDS011;37186;51.394;5.454;2023-05-16T14:21:16;4.28;;;4.18;;
26820;SDS011;37186;51.394;5.454;2023-05-16T14:24:16;4.28;;;4.18;;
26820;SDS011;37186;51.394;5.454;2023-05-16T14:27:17;4.05;;;3.95;;
26820;SDS011;37186;51.394;5.454;2023-05-16T14:30:17;4.38;;;4.28;;
26820;SDS011;37186;51.394;5.454;2023-05-16T14:33:18;4.47;;;4.38;;
26820;SDS011;37186;51.394;5.454;2023-05-16T14:36:19;4.30;;;4.20;;
26820;SDS011;37186;51.394;5.454;2023-05-16T14:39:19;4.00;;;3.90;;
26820;SDS011;37186;51.394;5.454;2023-05-16T14:42:20;4.03;;;3.92;;
26820;SDS011;37186;51.394;5.454;2023-05-16T14:45:20;3.90;;;3.80;;
26820;SDS011;37186;51.394;5.454;2023-05-16T14:48:21;4.20;;;4.10;;
26820;SDS011;37186;51.394;5.454;2023-05-16T14:51:21;4.00;;;3.90;;
26820;SDS011;37186;51.394;5.454;2023-05-16T14:54:22;4.30;;;4.20;;
26820;SDS011;37186;51.394;5.454;2023-05-16T14:57:23;4.25;;;4.15;;
26820;SDS011;37186;51.394;5.454;2023-05-16T15:00:23;4.32;;;4.22;;
26820;SDS011;37186;51.394;5.454;2023-05-16T15:03:24;4.38;;;4.28;;
26820;SDS011;37186;51.394;5.454;2023-05-16T15:06:25;4.05;;;3.95;;
26820;SDS011;37186;51.394;5.454;2023-05-16T15:09:25;4.05;;;3.95;;
26820;SDS011;37186;51.394;5.454;2023-05-16T15:12:26;4.05;;;3.95;;
26820;SDS011;37186;51.394;5.454;2023-05-16T15:15:26;4.07;;;3.97;;
26820;SDS011;37186;51.394;5.454;2023-05-16T15:18:27;3.90;;;3.80;;
26820;SDS011;37186;51.394;5.454;2023-05-16T15:21:28;4.15;;;4.05;;
26820;SDS011;37186;51.394;5.454;2023-05-16T15:24:30;4.18;;;4.07;;
26820;SDS011;37186;51.394;5.454;2023-05-16T15:27:31;4.22;;;4.13;;
26820;SDS011;37186;51.394;5.454;2023-05-16T15:30:31;4.30;;;4.20;;
26820;SDS011;37186;51.394;5.454;2023-05-16T15:33:32;4.20;;;4.10;;
26820;SDS011;37186;51.394;5.454;2023-05-16T15:36:33;4.55;;;4.45;;
26820;SDS011;37186;51.394;5.454;2023-05-16T15:39:34;4.38;;;4.28;;
26820;SDS011;37186;51.394;5.454;2023-05-16T15:42:35;4.00;;;3.90;;
26820;SDS011;37186;51.394;5.454;2023-05-16T15:45:35;4.18;;;4.07;;
26820;SDS011;37186;51.394;5.454;2023-05-16T15:48:36;4.32;;;4.22;;
26820;SDS011;37186;51.394;5.454;2023-05-16T15:51:41;4.45;;;4.35;;
26820;SDS011;37186;51.394;5.454;2023-05-16T15:54:42;4.13;;;4.03;;
26820;SDS011;37186;51.394;5.454;2023-05-16T15:57:42;4.10;;;4.00;;
26820;SDS011;37186;51.394;5.454;2023-05-16T16:00:43;4.35;;;4.25;;
26820;SDS011;37186;51.394;5.454;2023-05-16T16:03:44;4.32;;;4.22;;
26820;SDS011;37186;51.394;5.454;2023-05-16T16:06:45;4.50;;;4.40;;
26820;SDS011;37186;51.394;5.454;2023-05-16T16:09:45;4.18;;;4.07;;
26820;SDS011;37186;51.394;5.454;2023-05-16T16:13:07;4.32;;;4.22;;
26820;SDS011;37186;51.394;5.454;2023-05-16T16:16:07;4.15;;;4.05;;
26820;SDS011;37186;51.394;5.454;2023-05-16T16:19:07;4.35;;;4.25;;
26820;SDS011;37186;51.394;5.454;2023-05-16T16:22:08;4.25;;;4.15;;
26820;SDS011;37186;51.394;5.454;2023-05-16T16:25:08;4.15;;;4.05;;
26820;SDS011;37186;51.394;5.454;2023-05-16T16:28:09;4.40;;;4.30;;
26820;SDS011;37186;51.394;5.454;2023-05-16T16:31:09;4.10;;;4.00;;
26820;SDS011;37186;51.394;5.454;2023-05-16T16:34:10;4.38;;;4.28;;
26820;SDS011;37186;51.394;5.454;2023-05-16T16:37:11;4.53;;;4.43;;
26820;SDS011;37186;51.394;5.454;2023-05-16T16:40:11;4.53;;;4.43;;
26820;SDS011;37186;51.394;5.454;2023-05-16T16:43:13;4.40;;;4.30;;
26820;SDS011;37186;51.394;5.454;2023-05-16T16:46:13;4.43;;;4.32;;
26820;SDS011;37186;51.394;5.454;2023-05-16T16:49:14;4.60;;;4.50;;
26820;SDS011;37186;51.394;5.454;2023-05-16T16:52:14;4.15;;;4.05;;
26820;SDS011;37186;51.394;5.454;2023-05-16T16:55:15;4.15;;;4.05;;
26820;SDS011;37186;51.394;5.454;2023-05-16T16:58:16;4.00;;;3.90;;
26820;SDS011;37186;51.394;5.454;2023-05-16T17:01:16;4.07;;;3.97;;
26820;SDS011;37186;51.394;5.454;2023-05-16T17:04:17;4.03;;;3.92;;
26820;SDS011;37186;51.394;5.454;2023-05-16T17:07:17;3.95;;;3.85;;
26820;SDS011;37186;51.394;5.454;2023-05-16T17:10:18;4.10;;;4.00;;
26820;SDS011;37186;51.394;5.454;2023-05-16T17:13:19;4.18;;;4.07;;
26820;SDS011;37186;51.394;5.454;2023-05-16T17:16:20;4.15;;;4.05;;
26820;SDS011;37186;51.394;5.454;2023-05-16T17:19:21;3.88;;;3.78;;
26820;SDS011;37186;51.394;5.454;2023-05-16T17:22:21;4.18;;;4.07;;
26820;SDS011;37186;51.394;5.454;2023-05-16T17:25:22;4.53;;;4.43;;
26820;SDS011;37186;51.394;5.454;2023-05-16T17:28:22;5.05;;;4.95;;
26820;SDS011;37186;51.394;5.454;2023-05-16T17:31:24;5.65;;;5.53;;
26820;SDS011;37186;51.394;5.454;2023-05-16T17:34:25;5.05;;;4.95;;
26820;SDS011;37186;51.394;5.454;2023-05-16T17:37:26;5.50;;;5.40;;
26820;SDS011;37186;51.394;5.454;2023-05-16T17:40:27;4.85;;;4.75;;
26820;SDS011;37186;51.394;5.454;2023-05-16T17:43:28;5.28;;;5.18;;
26820;SDS011;37186;51.394;5.454;2023-05-16T17:46:29;4.63;;;4.53;;
26820;SDS011;37186;51.394;5.454;2023-05-16T17:49:30;4.85;;;4.75;;
26820;SDS011;37186;51.394;5.454;2023-05-16T17:52:31;4.78;;;4.68;;
26820;SDS011;37186;51.394;5.454;2023-05-16T17:55:32;4.45;;;4.35;;
26820;SDS011;37186;51.394;5.454;2023-05-16T17:58:32;4.20;;;4.10;;
26820;SDS011;37186;51.394;5.454;2023-05-16T18:01:33;4.15;;;4.05;;
26820;SDS011;37186;51.394;5.454;2023-05-16T18:04:33;4.25;;;4.15;;
26820;SDS011;37186;51.394;5.454;2023-05-16T18:07:34;3.80;;;3.70;;
26820;SDS011;37186;51.394;5.454;2023-05-16T18:10:34;3.70;;;3.60;;
26820;SDS011;37186;51.394;5.454;2023-05-16T18:13:37;3.60;;;3.50;;
26820;SDS011;37186;51.394;5.454;2023-05-16T18:16:38;3.75;;;3.65;;
26820;SDS011;37186;51.394;5.454;2023-05-16T18:19:38;3.58;;;3.47;;
26820;SDS011;37186;51.394;5.454;2023-05-16T18:22:39;4.25;;;4.15;;
26820;SDS011;37186;51.394;5.454;2023-05-16T18:25:41;3.78;;;3.67;;
26820;SDS011;37186;51.394;5.454;2023-05-16T18:28:42;4.15;;;4.05;;
26820;SDS011;37186;51.394;5.454;2023-05-16T18:31:43;3.90;;;3.80;;